sensor_id;sensor_type;location;lat;lon;timestamp;P1;durP1;ratioP1;P2;durP2;ratioP2
38487;SDS011;57384;51.986;4.458;2023-07-02T00:01:37;14.88;;;3.58;;
38487;SDS011;57384;51.986;4.458;2023-07-02T00:04:27;3.53;;;3.42;;
38487;SDS011;57384;51.986;4.458;2023-07-02T00:07:11;3.28;;;3.17;;
38487;SDS011;57384;51.986;4.458;2023-07-02T00:09:56;2.58;;;2.47;;
38487;SDS011;57384;51.986;4.458;2023-07-02T00:12:40;2.55;;;2.45;;
38487;SDS011;57384;51.986;4.458;2023-07-02T00:15:25;2.25;;;2.15;;
38487;SDS011;57384;51.986;4.458;2023-07-02T00:18:09;2.15;;;2.05;;
38487;SDS011;57384;51.986;4.458;2023-07-02T00:20:53;2.38;;;2.28;;
38487;SDS011;57384;51.986;4.458;2023-07-02T00:23:37;1.77;;;1.67;;
38487;SDS011;57384;51.986;4.458;2023-07-02T00:26:21;2.88;;;2.72;;
38487;SDS011;57384;51.986;4.458;2023-07-02T00:29:06;3.28;;;2.83;;
38487;SDS011;57384;51.986;4.458;2023-07-02T00:31:50;2.08;;;1.98;;
38487;SDS011;57384;51.986;4.458;2023-07-02T00:34:34;1.83;;;1.73;;
38487;SDS011;57384;51.986;4.458;2023-07-02T00:37:18;2.17;;;2.08;;
38487;SDS011;57384;51.986;4.458;2023-07-02T00:40:02;1.92;;;1.83;;
38487;SDS011;57384;51.986;4.458;2023-07-02T00:42:47;3.00;;;2.42;;
38487;SDS011;57384;51.986;4.458;2023-07-02T00:45:31;1.63;;;1.52;;
38487;SDS011;57384;51.986;4.458;2023-07-02T00:48:15;1.73;;;1.63;;
38487;SDS011;57384;51.986;4.458;2023-07-02T00:51:00;1.60;;;1.50;;
38487;SDS011;57384;51.986;4.458;2023-07-02T00:53:48;2.00;;;1.90;;
38487;SDS011;57384;51.986;4.458;2023-07-02T00:56:33;4.30;;;2.15;;
38487;SDS011;57384;51.986;4.458;2023-07-02T00:59:18;1.00;;;1.00;;
38487;SDS011;57384;51.986;4.458;2023-07-02T01:02:02;4.85;;;1.63;;
38487;SDS011;57384;51.986;4.458;2023-07-02T01:04:47;1.70;;;1.55;;
38487;SDS011;57384;51.986;4.458;2023-07-02T01:07:31;1.60;;;1.50;;
38487;SDS011;57384;51.986;4.458;2023-07-02T01:10:15;1.27;;;1.17;;
38487;SDS011;57384;51.986;4.458;2023-07-02T01:13:00;2.55;;;2.35;;
38487;SDS011;57384;51.986;4.458;2023-07-02T01:15:49;6.63;;;2.85;;
38487;SDS011;57384;51.986;4.458;2023-07-02T01:18:34;2.08;;;1.92;;
38487;SDS011;57384;51.986;4.458;2023-07-02T01:21:18;1.80;;;1.70;;
38487;SDS011;57384;51.986;4.458;2023-07-02T01:24:03;1.33;;;1.23;;
38487;SDS011;57384;51.986;4.458;2023-07-02T01:26:49;1.77;;;1.42;;
38487;SDS011;57384;51.986;4.458;2023-07-02T01:29:33;2.45;;;1.90;;
38487;SDS011;57384;51.986;4.458;2023-07-02T01:32:21;2.53;;;2.38;;
38487;SDS011;57384;51.986;4.458;2023-07-02T01:35:06;1.45;;;1.35;;
38487;SDS011;57384;51.986;4.458;2023-07-02T01:37:59;1.98;;;1.83;;
38487;SDS011;57384;51.986;4.458;2023-07-02T01:40:46;1.33;;;1.23;;
38487;SDS011;57384;51.986;4.458;2023-07-02T01:43:30;1.65;;;1.55;;
38487;SDS011;57384;51.986;4.458;2023-07-02T01:46:14;1.00;;;1.00;;
38487;SDS011;57384;51.986;4.458;2023-07-02T01:48:58;1.08;;;1.05;;
38487;SDS011;57384;51.986;4.458;2023-07-02T01:51:49;2.47;;;2.22;;
38487;SDS011;57384;51.986;4.458;2023-07-02T01:54:36;1.85;;;1.75;;
38487;SDS011;57384;51.986;4.458;2023-07-02T01:57:20;1.65;;;1.55;;
38487;SDS011;57384;51.986;4.458;2023-07-02T02:00:05;1.38;;;1.27;;
38487;SDS011;57384;51.986;4.458;2023-07-02T02:02:53;2.05;;;1.83;;
38487;SDS011;57384;51.986;4.458;2023-07-02T02:05:37;2.55;;;1.77;;
38487;SDS011;57384;51.986;4.458;2023-07-02T02:08:24;1.50;;;1.40;;
38487;SDS011;57384;51.986;4.458;2023-07-02T02:11:14;3.45;;;2.88;;
38487;SDS011;57384;51.986;4.458;2023-07-02T02:13:59;1.45;;;1.35;;
38487;SDS011;57384;51.986;4.458;2023-07-02T02:16:43;2.60;;;2.42;;
38487;SDS011;57384;51.986;4.458;2023-07-02T02:19:27;6.40;;;2.47;;
38487;SDS011;57384;51.986;4.458;2023-07-02T02:22:15;1.30;;;1.23;;
38487;SDS011;57384;51.986;4.458;2023-07-02T02:25:04;2.40;;;2.13;;
38487;SDS011;57384;51.986;4.458;2023-07-02T02:27:49;2.55;;;1.48;;
38487;SDS011;57384;51.986;4.458;2023-07-02T02:30:33;1.52;;;1.42;;
38487;SDS011;57384;51.986;4.458;2023-07-02T02:33:17;1.83;;;1.73;;
38487;SDS011;57384;51.986;4.458;2023-07-02T02:36:01;4.93;;;2.45;;
38487;SDS011;57384;51.986;4.458;2023-07-02T02:38:49;2.28;;;2.17;;
38487;SDS011;57384;51.986;4.458;2023-07-02T02:41:34;2.00;;;1.90;;
38487;SDS011;57384;51.986;4.458;2023-07-02T02:44:18;7.13;;;3.15;;
38487;SDS011;57384;51.986;4.458;2023-07-02T02:47:02;4.45;;;1.50;;
38487;SDS011;57384;51.986;4.458;2023-07-02T02:49:46;1.08;;;1.05;;
38487;SDS011;57384;51.986;4.458;2023-07-02T02:52:30;2.28;;;2.17;;
38487;SDS011;57384;51.986;4.458;2023-07-02T02:55:14;2.35;;;1.25;;
38487;SDS011;57384;51.986;4.458;2023-07-02T02:57:58;1.80;;;1.70;;
38487;SDS011;57384;51.986;4.458;2023-07-02T03:00:45;2.67;;;2.13;;
38487;SDS011;57384;51.986;4.458;2023-07-02T03:03:29;1.75;;;1.65;;
38487;SDS011;57384;51.986;4.458;2023-07-02T03:06:13;1.80;;;1.70;;
38487;SDS011;57384;51.986;4.458;2023-07-02T03:08:58;1.63;;;1.52;;
38487;SDS011;57384;51.986;4.458;2023-07-02T03:11:42;1.27;;;1.20;;
38487;SDS011;57384;51.986;4.458;2023-07-02T03:14:27;13.57;;;1.80;;
38487;SDS011;57384;51.986;4.458;2023-07-02T03:17:11;1.17;;;1.13;;
38487;SDS011;57384;51.986;4.458;2023-07-02T03:19:56;1.20;;;1.10;;
38487;SDS011;57384;51.986;4.458;2023-07-02T03:22:40;1.98;;;1.80;;
38487;SDS011;57384;51.986;4.458;2023-07-02T03:25:32;6.53;;;3.85;;
38487;SDS011;57384;51.986;4.458;2023-07-02T03:28:30;1.40;;;1.30;;
38487;SDS011;57384;51.986;4.458;2023-07-02T03:31:17;1.80;;;1.70;;
38487;SDS011;57384;51.986;4.458;2023-07-02T03:34:06;2.08;;;1.83;;
38487;SDS011;57384;51.986;4.458;2023-07-02T03:36:55;2.25;;;2.15;;
38487;SDS011;57384;51.986;4.458;2023-07-02T03:39:40;1.50;;;1.40;;
38487;SDS011;57384;51.986;4.458;2023-07-02T03:42:27;13.98;;;2.45;;
38487;SDS011;57384;51.986;4.458;2023-07-02T03:45:11;1.92;;;1.73;;
38487;SDS011;57384;51.986;4.458;2023-07-02T03:47:55;2.00;;;1.90;;
38487;SDS011;57384;51.986;4.458;2023-07-02T03:50:40;1.98;;;1.88;;
38487;SDS011;57384;51.986;4.458;2023-07-02T03:53:27;1.73;;;1.60;;
38487;SDS011;57384;51.986;4.458;2023-07-02T03:56:11;2.00;;;1.48;;
38487;SDS011;57384;51.986;4.458;2023-07-02T03:58:55;2.38;;;1.95;;
38487;SDS011;57384;51.986;4.458;2023-07-02T04:01:39;3.22;;;2.92;;
38487;SDS011;57384;51.986;4.458;2023-07-02T04:04:23;1.92;;;1.73;;
38487;SDS011;57384;51.986;4.458;2023-07-02T04:09:54;2.05;;;1.65;;
38487;SDS011;57384;51.986;4.458;2023-07-02T04:12:42;1.30;;;1.20;;
38487;SDS011;57384;51.986;4.458;2023-07-02T04:15:26;2.67;;;2.45;;
38487;SDS011;57384;51.986;4.458;2023-07-02T04:18:10;1.80;;;1.70;;
38487;SDS011;57384;51.986;4.458;2023-07-02T04:20:54;4.05;;;1.42;;
38487;SDS011;57384;51.986;4.458;2023-07-02T04:23:42;1.67;;;1.58;;
38487;SDS011;57384;51.986;4.458;2023-07-02T04:26:26;1.83;;;1.73;;
38487;SDS011;57384;51.986;4.458;2023-07-02T04:29:24;1.98;;;1.88;;
38487;SDS011;57384;51.986;4.458;2023-07-02T04:32:08;2.15;;;2.00;;
38487;SDS011;57384;51.986;4.458;2023-07-02T04:34:55;3.35;;;3.05;;
38487;SDS011;57384;51.986;4.458;2023-07-02T04:37:39;1.58;;;1.48;;
38487;SDS011;57384;51.986;4.458;2023-07-02T04:40:23;1.83;;;1.65;;
38487;SDS011;57384;51.986;4.458;2023-07-02T04:43:11;0.95;;;0.95;;
38487;SDS011;57384;51.986;4.458;2023-07-02T04:45:55;1.30;;;1.20;;
38487;SDS011;57384;51.986;4.458;2023-07-02T04:48:40;16.50;;;3.50;;
38487;SDS011;57384;51.986;4.458;2023-07-02T04:51:34;2.70;;;1.98;;
38487;SDS011;57384;51.986;4.458;2023-07-02T04:54:18;2.92;;;2.75;;
38487;SDS011;57384;51.986;4.458;2023-07-02T04:57:03;1.33;;;1.23;;
38487;SDS011;57384;51.986;4.458;2023-07-02T04:59:50;1.75;;;1.65;;
38487;SDS011;57384;51.986;4.458;2023-07-02T05:02:34;1.45;;;1.35;;
38487;SDS011;57384;51.986;4.458;2023-07-02T05:05:27;1.75;;;1.65;;
38487;SDS011;57384;51.986;4.458;2023-07-02T05:08:18;3.10;;;1.50;;
38487;SDS011;57384;51.986;4.458;2023-07-02T05:11:09;2.10;;;2.00;;
38487;SDS011;57384;51.986;4.458;2023-07-02T05:13:58;1.70;;;1.60;;
38487;SDS011;57384;51.986;4.458;2023-07-02T05:16:46;1.60;;;1.50;;
38487;SDS011;57384;51.986;4.458;2023-07-02T05:19:52;1.77;;;1.67;;
38487;SDS011;57384;51.986;4.458;2023-07-02T05:26:13;1.60;;;1.50;;
38487;SDS011;57384;51.986;4.458;2023-07-02T05:28:59;3.83;;;3.53;;
38487;SDS011;57384;51.986;4.458;2023-07-02T05:31:54;3.08;;;2.88;;
38487;SDS011;57384;51.986;4.458;2023-07-02T05:34:58;1.17;;;1.10;;
38487;SDS011;57384;51.986;4.458;2023-07-02T05:37:50;1.45;;;1.35;;
38487;SDS011;57384;51.986;4.458;2023-07-02T05:40:34;2.15;;;1.95;;
38487;SDS011;57384;51.986;4.458;2023-07-02T05:43:29;1.70;;;1.60;;
38487;SDS011;57384;51.986;4.458;2023-07-02T05:49:24;3.25;;;2.50;;
38487;SDS011;57384;51.986;4.458;2023-07-02T05:52:11;2.80;;;2.60;;
38487;SDS011;57384;51.986;4.458;2023-07-02T05:54:55;1.33;;;1.23;;
38487;SDS011;57384;51.986;4.458;2023-07-02T05:57:40;1.70;;;1.25;;
38487;SDS011;57384;51.986;4.458;2023-07-02T06:00:26;9.40;;;4.05;;
38487;SDS011;57384;51.986;4.458;2023-07-02T06:03:19;1.73;;;1.63;;
38487;SDS011;57384;51.986;4.458;2023-07-02T06:06:22;1.05;;;1.05;;
38487;SDS011;57384;51.986;4.458;2023-07-02T06:09:06;1.35;;;1.15;;
38487;SDS011;57384;51.986;4.458;2023-07-02T06:12:01;1.08;;;1.00;;
38487;SDS011;57384;51.986;4.458;2023-07-02T06:14:45;1.70;;;1.60;;
38487;SDS011;57384;51.986;4.458;2023-07-02T06:17:33;1.77;;;1.63;;
38487;SDS011;57384;51.986;4.458;2023-07-02T06:20:17;1.70;;;1.20;;
38487;SDS011;57384;51.986;4.458;2023-07-02T06:23:08;1.33;;;1.23;;
38487;SDS011;57384;51.986;4.458;2023-07-02T06:25:55;1.25;;;1.15;;
38487;SDS011;57384;51.986;4.458;2023-07-02T06:28:41;1.88;;;1.70;;
38487;SDS011;57384;51.986;4.458;2023-07-02T06:31:33;1.35;;;1.30;;
38487;SDS011;57384;51.986;4.458;2023-07-02T06:34:18;1.20;;;1.10;;
38487;SDS011;57384;51.986;4.458;2023-07-02T06:37:02;2.15;;;1.73;;
38487;SDS011;57384;51.986;4.458;2023-07-02T06:39:49;0.93;;;0.93;;
38487;SDS011;57384;51.986;4.458;2023-07-02T06:42:39;1.50;;;1.30;;
38487;SDS011;57384;51.986;4.458;2023-07-02T06:45:23;2.88;;;2.67;;
38487;SDS011;57384;51.986;4.458;2023-07-02T06:48:12;1.83;;;1.73;;
38487;SDS011;57384;51.986;4.458;2023-07-02T06:51:04;0.80;;;0.80;;
38487;SDS011;57384;51.986;4.458;2023-07-02T06:53:51;1.92;;;1.83;;
38487;SDS011;57384;51.986;4.458;2023-07-02T06:56:35;10.75;;;2.35;;
38487;SDS011;57384;51.986;4.458;2023-07-02T06:59:27;2.05;;;1.13;;
38487;SDS011;57384;51.986;4.458;2023-07-02T07:02:14;1.30;;;1.20;;
38487;SDS011;57384;51.986;4.458;2023-07-02T07:04:58;1.38;;;1.27;;
38487;SDS011;57384;51.986;4.458;2023-07-02T07:07:42;0.95;;;0.95;;
38487;SDS011;57384;51.986;4.458;2023-07-02T07:10:26;2.47;;;2.28;;
38487;SDS011;57384;51.986;4.458;2023-07-02T07:13:11;3.60;;;1.50;;
38487;SDS011;57384;51.986;4.458;2023-07-02T07:15:56;1.92;;;1.70;;
38487;SDS011;57384;51.986;4.458;2023-07-02T07:18:40;1.13;;;1.08;;
38487;SDS011;57384;51.986;4.458;2023-07-02T07:21:24;2.97;;;1.60;;
38487;SDS011;57384;51.986;4.458;2023-07-02T07:24:08;5.50;;;2.35;;
38487;SDS011;57384;51.986;4.458;2023-07-02T07:26:52;1.50;;;1.40;;
38487;SDS011;57384;51.986;4.458;2023-07-02T07:29:36;0.90;;;0.90;;
38487;SDS011;57384;51.986;4.458;2023-07-02T07:32:20;1.10;;;1.10;;
38487;SDS011;57384;51.986;4.458;2023-07-02T07:35:12;1.65;;;1.45;;
38487;SDS011;57384;51.986;4.458;2023-07-02T07:37:56;1.67;;;1.58;;
38487;SDS011;57384;51.986;4.458;2023-07-02T07:40:40;1.92;;;1.83;;
38487;SDS011;57384;51.986;4.458;2023-07-02T07:43:26;1.75;;;1.65;;
38487;SDS011;57384;51.986;4.458;2023-07-02T07:46:11;3.10;;;2.17;;
38487;SDS011;57384;51.986;4.458;2023-07-02T07:48:58;3.45;;;1.58;;
38487;SDS011;57384;51.986;4.458;2023-07-02T07:51:44;12.20;;;2.50;;
38487;SDS011;57384;51.986;4.458;2023-07-02T07:54:28;1.45;;;1.35;;
38487;SDS011;57384;51.986;4.458;2023-07-02T07:57:14;1.58;;;1.48;;
38487;SDS011;57384;51.986;4.458;2023-07-02T07:59:58;1.45;;;1.35;;
38487;SDS011;57384;51.986;4.458;2023-07-02T08:02:45;4.18;;;1.70;;
38487;SDS011;57384;51.986;4.458;2023-07-02T08:05:30;0.80;;;0.80;;
38487;SDS011;57384;51.986;4.458;2023-07-02T08:08:14;1.30;;;1.20;;
38487;SDS011;57384;51.986;4.458;2023-07-02T08:14:22;1.70;;;1.60;;
38487;SDS011;57384;51.986;4.458;2023-07-02T08:17:06;1.33;;;1.23;;
38487;SDS011;57384;51.986;4.458;2023-07-02T08:19:50;2.30;;;2.10;;
38487;SDS011;57384;51.986;4.458;2023-07-02T08:22:35;1.77;;;1.67;;
38487;SDS011;57384;51.986;4.458;2023-07-02T08:28:08;4.45;;;2.70;;
38487;SDS011;57384;51.986;4.458;2023-07-02T08:31:00;2.10;;;2.00;;
38487;SDS011;57384;51.986;4.458;2023-07-02T08:33:47;2.38;;;2.28;;
38487;SDS011;57384;51.986;4.458;2023-07-02T08:36:31;2.25;;;2.15;;
38487;SDS011;57384;51.986;4.458;2023-07-02T08:52:55;4.05;;;3.70;;
38487;SDS011;57384;51.986;4.458;2023-07-02T08:55:40;1.95;;;1.85;;
38487;SDS011;57384;51.986;4.458;2023-07-02T08:58:24;2.60;;;2.50;;
38487;SDS011;57384;51.986;4.458;2023-07-02T09:01:09;2.72;;;2.63;;
38487;SDS011;57384;51.986;4.458;2023-07-02T09:03:58;2.88;;;2.78;;
38487;SDS011;57384;51.986;4.458;2023-07-02T09:06:43;3.40;;;3.22;;
38487;SDS011;57384;51.986;4.458;2023-07-02T09:09:27;4.75;;;4.47;;
38487;SDS011;57384;51.986;4.458;2023-07-02T09:12:21;3.22;;;3.13;;
38487;SDS011;57384;51.986;4.458;2023-07-02T09:15:13;3.30;;;3.20;;
38487;SDS011;57384;51.986;4.458;2023-07-02T09:21:20;3.90;;;3.80;;
38487;SDS011;57384;51.986;4.458;2023-07-02T09:26:58;4.10;;;4.00;;
38487;SDS011;57384;51.986;4.458;2023-07-02T09:29:49;4.43;;;4.22;;
38487;SDS011;57384;51.986;4.458;2023-07-02T09:32:34;3.00;;;2.90;;
38487;SDS011;57384;51.986;4.458;2023-07-02T09:35:18;3.83;;;3.72;;
38487;SDS011;57384;51.986;4.458;2023-07-02T09:38:02;3.90;;;3.80;;
38487;SDS011;57384;51.986;4.458;2023-07-02T09:40:47;3.20;;;3.10;;
38487;SDS011;57384;51.986;4.458;2023-07-02T09:43:33;4.25;;;4.15;;
38487;SDS011;57384;51.986;4.458;2023-07-02T09:46:17;3.85;;;3.75;;
38487;SDS011;57384;51.986;4.458;2023-07-02T09:49:02;4.18;;;4.07;;
38487;SDS011;57384;51.986;4.458;2023-07-02T09:51:46;4.78;;;4.57;;
38487;SDS011;57384;51.986;4.458;2023-07-02T09:54:30;3.55;;;3.35;;
38487;SDS011;57384;51.986;4.458;2023-07-02T09:57:15;3.78;;;3.67;;
38487;SDS011;57384;51.986;4.458;2023-07-02T10:00:00;3.08;;;2.97;;
38487;SDS011;57384;51.986;4.458;2023-07-02T10:02:49;3.03;;;2.92;;
38487;SDS011;57384;51.986;4.458;2023-07-02T10:05:33;2.78;;;2.67;;
38487;SDS011;57384;51.986;4.458;2023-07-02T10:08:18;5.50;;;3.83;;
38487;SDS011;57384;51.986;4.458;2023-07-02T10:11:06;3.33;;;3.22;;
38487;SDS011;57384;51.986;4.458;2023-07-02T10:13:57;2.80;;;2.70;;
38487;SDS011;57384;51.986;4.458;2023-07-02T10:16:55;2.70;;;2.60;;
38487;SDS011;57384;51.986;4.458;2023-07-02T10:19:49;3.22;;;3.00;;
38487;SDS011;57384;51.986;4.458;2023-07-02T10:22:43;3.30;;;3.20;;
38487;SDS011;57384;51.986;4.458;2023-07-02T10:25:43;2.25;;;2.15;;
38487;SDS011;57384;51.986;4.458;2023-07-02T10:28:28;2.72;;;2.53;;
38487;SDS011;57384;51.986;4.458;2023-07-02T10:31:28;2.20;;;2.10;;
38487;SDS011;57384;51.986;4.458;2023-07-02T10:34:15;2.78;;;2.67;;
38487;SDS011;57384;51.986;4.458;2023-07-02T10:37:00;2.28;;;2.17;;
38487;SDS011;57384;51.986;4.458;2023-07-02T10:39:45;2.88;;;2.72;;
38487;SDS011;57384;51.986;4.458;2023-07-02T10:42:45;2.70;;;2.58;;
38487;SDS011;57384;51.986;4.458;2023-07-02T10:45:35;2.53;;;2.42;;
38487;SDS011;57384;51.986;4.458;2023-07-02T10:48:19;2.10;;;2.00;;
38487;SDS011;57384;51.986;4.458;2023-07-02T10:51:11;2.83;;;2.60;;
38487;SDS011;57384;51.986;4.458;2023-07-02T10:53:58;2.10;;;2.00;;
38487;SDS011;57384;51.986;4.458;2023-07-02T10:56:45;3.03;;;2.92;;
38487;SDS011;57384;51.986;4.458;2023-07-02T10:59:30;2.67;;;2.58;;
38487;SDS011;57384;51.986;4.458;2023-07-02T11:02:14;2.60;;;2.50;;
38487;SDS011;57384;51.986;4.458;2023-07-02T11:05:00;2.20;;;2.10;;
38487;SDS011;57384;51.986;4.458;2023-07-02T11:07:45;2.92;;;2.83;;
38487;SDS011;57384;51.986;4.458;2023-07-02T11:10:29;1.90;;;1.80;;
38487;SDS011;57384;51.986;4.458;2023-07-02T11:13:17;2.53;;;2.42;;
38487;SDS011;57384;51.986;4.458;2023-07-02T11:16:02;6.05;;;2.75;;
38487;SDS011;57384;51.986;4.458;2023-07-02T11:18:47;2.75;;;2.65;;
38487;SDS011;57384;51.986;4.458;2023-07-02T11:21:31;2.72;;;2.63;;
38487;SDS011;57384;51.986;4.458;2023-07-02T11:24:15;2.28;;;2.17;;
38487;SDS011;57384;51.986;4.458;2023-07-02T11:26:59;2.95;;;2.85;;
38487;SDS011;57384;51.986;4.458;2023-07-02T11:29:44;3.83;;;3.65;;
38487;SDS011;57384;51.986;4.458;2023-07-02T11:32:28;4.53;;;3.20;;
38487;SDS011;57384;51.986;4.458;2023-07-02T11:35:13;2.75;;;2.65;;
38487;SDS011;57384;51.986;4.458;2023-07-02T11:37:57;2.97;;;2.88;;
38487;SDS011;57384;51.986;4.458;2023-07-02T11:40:41;3.08;;;2.97;;
38487;SDS011;57384;51.986;4.458;2023-07-02T11:43:25;2.50;;;2.40;;
38487;SDS011;57384;51.986;4.458;2023-07-02T11:46:10;6.18;;;3.35;;
38487;SDS011;57384;51.986;4.458;2023-07-02T11:48:54;3.33;;;3.20;;
38487;SDS011;57384;51.986;4.458;2023-07-02T11:51:38;3.58;;;3.38;;
38487;SDS011;57384;51.986;4.458;2023-07-02T11:54:24;2.42;;;2.33;;
38487;SDS011;57384;51.986;4.458;2023-07-02T11:57:08;2.88;;;2.78;;
38487;SDS011;57384;51.986;4.458;2023-07-02T11:59:55;2.97;;;2.88;;
38487;SDS011;57384;51.986;4.458;2023-07-02T12:02:39;2.78;;;2.67;;
38487;SDS011;57384;51.986;4.458;2023-07-02T12:05:23;3.30;;;3.20;;
38487;SDS011;57384;51.986;4.458;2023-07-02T12:08:08;3.53;;;3.22;;
38487;SDS011;57384;51.986;4.458;2023-07-02T12:10:52;3.63;;;3.53;;
38487;SDS011;57384;51.986;4.458;2023-07-02T12:13:36;4.43;;;4.22;;
38487;SDS011;57384;51.986;4.458;2023-07-02T12:16:20;3.50;;;3.40;;
38487;SDS011;57384;51.986;4.458;2023-07-02T12:19:04;2.95;;;2.85;;
38487;SDS011;57384;51.986;4.458;2023-07-02T12:21:48;5.43;;;4.50;;
38487;SDS011;57384;51.986;4.458;2023-07-02T12:24:33;3.55;;;3.45;;
38487;SDS011;57384;51.986;4.458;2023-07-02T12:27:17;3.05;;;2.95;;
38487;SDS011;57384;51.986;4.458;2023-07-02T12:30:01;3.80;;;3.70;;
38487;SDS011;57384;51.986;4.458;2023-07-02T12:32:45;3.30;;;3.20;;
38487;SDS011;57384;51.986;4.458;2023-07-02T12:35:29;8.15;;;2.38;;
38487;SDS011;57384;51.986;4.458;2023-07-02T12:38:13;1.65;;;1.55;;
38487;SDS011;57384;51.986;4.458;2023-07-02T12:40:57;1.75;;;1.65;;
38487;SDS011;57384;51.986;4.458;2023-07-02T12:43:41;3.58;;;1.95;;
38487;SDS011;57384;51.986;4.458;2023-07-02T12:46:25;1.70;;;1.60;;
38487;SDS011;57384;51.986;4.458;2023-07-02T12:49:09;1.02;;;0.95;;
38487;SDS011;57384;51.986;4.458;2023-07-02T12:51:53;1.48;;;1.33;;
38487;SDS011;57384;51.986;4.458;2023-07-02T12:54:38;3.25;;;1.50;;
38487;SDS011;57384;51.986;4.458;2023-07-02T12:57:22;0.77;;;0.77;;
38487;SDS011;57384;51.986;4.458;2023-07-02T13:00:06;0.90;;;0.90;;
38487;SDS011;57384;51.986;4.458;2023-07-02T13:02:50;1.20;;;0.93;;
38487;SDS011;57384;51.986;4.458;2023-07-02T13:05:34;0.80;;;0.80;;
38487;SDS011;57384;51.986;4.458;2023-07-02T13:08:18;12.63;;;1.25;;
38487;SDS011;57384;51.986;4.458;2023-07-02T13:11:02;0.70;;;0.70;;
38487;SDS011;57384;51.986;4.458;2023-07-02T13:13:46;1.45;;;1.35;;
38487;SDS011;57384;51.986;4.458;2023-07-02T13:16:33;2.85;;;2.58;;
38487;SDS011;57384;51.986;4.458;2023-07-02T13:19:17;1.25;;;1.15;;
38487;SDS011;57384;51.986;4.458;2023-07-02T13:22:01;1.10;;;1.10;;
38487;SDS011;57384;51.986;4.458;2023-07-02T13:24:45;0.93;;;0.93;;
38487;SDS011;57384;51.986;4.458;2023-07-02T13:27:29;0.95;;;0.80;;
38487;SDS011;57384;51.986;4.458;2023-07-02T13:30:13;1.30;;;1.20;;
38487;SDS011;57384;51.986;4.458;2023-07-02T13:32:57;0.95;;;0.90;;
38487;SDS011;57384;51.986;4.458;2023-07-02T13:35:41;1.17;;;1.10;;
38487;SDS011;57384;51.986;4.458;2023-07-02T13:38:26;0.90;;;0.90;;
38487;SDS011;57384;51.986;4.458;2023-07-02T13:41:10;1.00;;;1.00;;
38487;SDS011;57384;51.986;4.458;2023-07-02T13:43:54;0.90;;;0.90;;
38487;SDS011;57384;51.986;4.458;2023-07-02T13:46:38;1.10;;;1.10;;
38487;SDS011;57384;51.986;4.458;2023-07-02T13:49:22;0.80;;;0.80;;
38487;SDS011;57384;51.986;4.458;2023-07-02T13:52:06;1.00;;;1.00;;
38487;SDS011;57384;51.986;4.458;2023-07-02T13:54:50;0.80;;;0.80;;
38487;SDS011;57384;51.986;4.458;2023-07-02T13:57:34;0.80;;;0.80;;
38487;SDS011;57384;51.986;4.458;2023-07-02T14:00:18;1.17;;;1.08;;
38487;SDS011;57384;51.986;4.458;2023-07-02T14:03:04;2.70;;;1.60;;
38487;SDS011;57384;51.986;4.458;2023-07-02T14:05:48;1.30;;;1.20;;
38487;SDS011;57384;51.986;4.458;2023-07-02T14:08:32;0.90;;;0.90;;
38487;SDS011;57384;51.986;4.458;2023-07-02T14:11:16;2.05;;;1.73;;
38487;SDS011;57384;51.986;4.458;2023-07-02T14:14:00;1.40;;;1.30;;
38487;SDS011;57384;51.986;4.458;2023-07-02T14:16:45;1.00;;;1.00;;
38487;SDS011;57384;51.986;4.458;2023-07-02T14:19:29;0.90;;;0.90;;
38487;SDS011;57384;51.986;4.458;2023-07-02T14:22:13;1.60;;;1.50;;
38487;SDS011;57384;51.986;4.458;2023-07-02T14:24:57;1.00;;;1.00;;
38487;SDS011;57384;51.986;4.458;2023-07-02T14:27:41;1.05;;;1.05;;
38487;SDS011;57384;51.986;4.458;2023-07-02T14:30:25;1.30;;;1.20;;
38487;SDS011;57384;51.986;4.458;2023-07-02T14:33:09;2.45;;;1.35;;
38487;SDS011;57384;51.986;4.458;2023-07-02T14:35:53;0.88;;;0.88;;
38487;SDS011;57384;51.986;4.458;2023-07-02T14:38:37;1.33;;;1.23;;
38487;SDS011;57384;51.986;4.458;2023-07-02T14:41:22;0.90;;;0.90;;
38487;SDS011;57384;51.986;4.458;2023-07-02T14:44:06;1.38;;;1.27;;
38487;SDS011;57384;51.986;4.458;2023-07-02T14:46:50;1.10;;;1.00;;
38487;SDS011;57384;51.986;4.458;2023-07-02T14:49:36;1.20;;;1.10;;
38487;SDS011;57384;51.986;4.458;2023-07-02T14:52:21;0.90;;;0.90;;
38487;SDS011;57384;51.986;4.458;2023-07-02T14:55:05;2.95;;;1.40;;
38487;SDS011;57384;51.986;4.458;2023-07-02T14:57:49;0.95;;;0.95;;
38487;SDS011;57384;51.986;4.458;2023-07-02T15:00:33;1.73;;;1.63;;
38487;SDS011;57384;51.986;4.458;2023-07-02T15:03:17;1.23;;;1.15;;
38487;SDS011;57384;51.986;4.458;2023-07-02T15:06:09;1.52;;;1.25;;
38487;SDS011;57384;51.986;4.458;2023-07-02T15:08:55;1.55;;;1.45;;
38487;SDS011;57384;51.986;4.458;2023-07-02T15:11:40;1.50;;;1.40;;
38487;SDS011;57384;51.986;4.458;2023-07-02T15:14:24;1.75;;;1.65;;
38487;SDS011;57384;51.986;4.458;2023-07-02T15:17:08;1.38;;;1.27;;
38487;SDS011;57384;51.986;4.458;2023-07-02T15:19:52;1.73;;;1.63;;
38487;SDS011;57384;51.986;4.458;2023-07-02T15:22:36;1.35;;;1.25;;
38487;SDS011;57384;51.986;4.458;2023-07-02T15:25:24;1.10;;;1.10;;
38487;SDS011;57384;51.986;4.458;2023-07-02T15:28:08;0.77;;;0.77;;
38487;SDS011;57384;51.986;4.458;2023-07-02T15:30:52;1.70;;;1.60;;
38487;SDS011;57384;51.986;4.458;2023-07-02T15:33:37;0.85;;;0.85;;
38487;SDS011;57384;51.986;4.458;2023-07-02T15:36:21;2.55;;;1.40;;
38487;SDS011;57384;51.986;4.458;2023-07-02T15:39:05;0.80;;;0.80;;
38487;SDS011;57384;51.986;4.458;2023-07-02T15:41:50;1.17;;;1.17;;
38487;SDS011;57384;51.986;4.458;2023-07-02T15:44:33;2.70;;;1.27;;
38487;SDS011;57384;51.986;4.458;2023-07-02T15:47:18;1.15;;;1.15;;
38487;SDS011;57384;51.986;4.458;2023-07-02T15:50:02;1.00;;;1.00;;
38487;SDS011;57384;51.986;4.458;2023-07-02T15:52:46;1.42;;;1.33;;
38487;SDS011;57384;51.986;4.458;2023-07-02T15:55:33;2.15;;;1.23;;
38487;SDS011;57384;51.986;4.458;2023-07-02T15:58:18;1.98;;;1.52;;
38487;SDS011;57384;51.986;4.458;2023-07-02T16:01:09;2.00;;;1.30;;
38487;SDS011;57384;51.986;4.458;2023-07-02T16:03:58;4.97;;;4.72;;
38487;SDS011;57384;51.986;4.458;2023-07-02T16:06:43;8.68;;;5.68;;
38487;SDS011;57384;51.986;4.458;2023-07-02T16:09:27;3.20;;;3.00;;
38487;SDS011;57384;51.986;4.458;2023-07-02T16:12:11;6.90;;;6.32;;
38487;SDS011;57384;51.986;4.458;2023-07-02T16:14:55;8.95;;;6.70;;
38487;SDS011;57384;51.986;4.458;2023-07-02T16:17:40;4.55;;;4.15;;
38487;SDS011;57384;51.986;4.458;2023-07-02T16:20:24;8.38;;;3.75;;
38487;SDS011;57384;51.986;4.458;2023-07-02T16:23:08;3.45;;;2.30;;
38487;SDS011;57384;51.986;4.458;2023-07-02T16:26:10;2.00;;;1.58;;
38487;SDS011;57384;51.986;4.458;2023-07-02T16:28:54;1.88;;;1.77;;
38487;SDS011;57384;51.986;4.458;2023-07-02T16:31:47;4.43;;;1.52;;
38487;SDS011;57384;51.986;4.458;2023-07-02T16:34:32;1.73;;;1.63;;
38487;SDS011;57384;51.986;4.458;2023-07-02T16:37:16;1.38;;;1.27;;
38487;SDS011;57384;51.986;4.458;2023-07-02T16:40:01;1.17;;;1.17;;
38487;SDS011;57384;51.986;4.458;2023-07-02T16:42:46;4.72;;;1.38;;
38487;SDS011;57384;51.986;4.458;2023-07-02T16:45:31;2.20;;;2.00;;
38487;SDS011;57384;51.986;4.458;2023-07-02T16:48:15;1.30;;;1.20;;
38487;SDS011;57384;51.986;4.458;2023-07-02T16:51:03;0.98;;;0.98;;
38487;SDS011;57384;51.986;4.458;2023-07-02T16:53:49;1.70;;;1.60;;
38487;SDS011;57384;51.986;4.458;2023-07-02T16:56:33;1.00;;;1.00;;
38487;SDS011;57384;51.986;4.458;2023-07-02T16:59:19;1.45;;;1.30;;
38487;SDS011;57384;51.986;4.458;2023-07-02T17:02:06;1.45;;;1.35;;
38487;SDS011;57384;51.986;4.458;2023-07-02T17:04:51;1.75;;;1.65;;
38487;SDS011;57384;51.986;4.458;2023-07-02T17:07:35;1.40;;;1.30;;
38487;SDS011;57384;51.986;4.458;2023-07-02T17:10:21;4.10;;;1.10;;
38487;SDS011;57384;51.986;4.458;2023-07-02T17:13:05;2.00;;;1.90;;
38487;SDS011;57384;51.986;4.458;2023-07-02T17:15:49;0.95;;;0.95;;